N295SA KSLC-KBCE
Flight info
| Callsign | N295SA |
|---|---|
| Flight time | 0h 43m |
| Altitude | 19000 |
| Route | FFU9 BCE |
| Aircraft | TBM8/L-SDFGRWY/S |
Departure
| Time | 2026-05-07 22:46 |
|---|---|
| Airport | Salt Lake City International Airport (KSLC) |
Arrival
| Time | 2026-05-07 23:30 |
|---|---|
| Airport | Bryce Canyon Airport (KBCE) |
| Time | Latitude | Longitude | Altitude | Speed | Heading |
|---|---|---|---|---|---|
| 2026-05-07 22:20 | 40.77394 | -111.95957 | 4253 ft | 0 kts | 0° |
| 2026-05-07 22:36 | 40.77398 | -111.95957 | 4252 ft | 4 kts | 359° |
| 2026-05-07 22:37 | 40.77419 | -111.95987 | 4253 ft | 5 kts | 268° |
| 2026-05-07 22:37 | 40.77419 | -111.96038 | 4253 ft | 6 kts | 276° |
| 2026-05-07 22:37 | 40.77459 | -111.96065 | 4254 ft | 7 kts | 3° |
| 2026-05-07 22:37 | 40.77518 | -111.96065 | 4254 ft | 10 kts | 0° |
| 2026-05-07 22:38 | 40.77582 | -111.96064 | 4254 ft | 9 kts | 0° |
| 2026-05-07 22:38 | 40.77655 | -111.96064 | 4254 ft | 13 kts | 359° |
| 2026-05-07 22:38 | 40.77743 | -111.96065 | 4254 ft | 11 kts | 1° |
| 2026-05-07 22:38 | 40.77812 | -111.96064 | 4253 ft | 11 kts | 360° |
| 2026-05-07 22:39 | 40.77867 | -111.96016 | 4256 ft | 10 kts | 36° |
| 2026-05-07 22:39 | 40.77946 | -111.96004 | 4253 ft | 13 kts | 0° |
| 2026-05-07 22:39 | 40.78034 | -111.96004 | 4253 ft | 13 kts | 360° |
| 2026-05-07 22:39 | 40.78137 | -111.96003 | 4243 ft | 16 kts | 2° |
| 2026-05-07 22:40 | 40.78252 | -111.96003 | 4225 ft | 17 kts | 0° |
| 2026-05-07 22:40 | 40.78360 | -111.96003 | 4225 ft | 14 kts | 358° |
| 2026-05-07 22:40 | 40.78455 | -111.96003 | 4225 ft | 13 kts | 1° |
| 2026-05-07 22:40 | 40.78550 | -111.96003 | 4225 ft | 14 kts | 359° |
| 2026-05-07 22:41 | 40.78644 | -111.96003 | 4225 ft | 14 kts | 360° |
| 2026-05-07 22:41 | 40.78743 | -111.96004 | 4226 ft | 14 kts | 1° |
| 2026-05-07 22:41 | 40.78840 | -111.96003 | 4227 ft | 14 kts | 360° |
| 2026-05-07 22:41 | 40.78943 | -111.96003 | 4226 ft | 15 kts | 360° |
| 2026-05-07 22:42 | 40.79048 | -111.96003 | 4226 ft | 15 kts | 360° |
| 2026-05-07 22:42 | 40.79155 | -111.96003 | 4227 ft | 16 kts | 359° |
| 2026-05-07 22:42 | 40.79269 | -111.96003 | 4225 ft | 17 kts | 0° |
| 2026-05-07 22:42 | 40.79381 | -111.96003 | 4225 ft | 15 kts | 360° |
| 2026-05-07 22:43 | 40.79486 | -111.96003 | 4225 ft | 15 kts | 1° |
| 2026-05-07 22:43 | 40.79589 | -111.96003 | 4225 ft | 14 kts | 0° |
| 2026-05-07 22:43 | 40.79692 | -111.96003 | 4225 ft | 15 kts | 0° |
| 2026-05-07 22:43 | 40.79775 | -111.96003 | 4226 ft | 11 kts | 359° |
| 2026-05-07 22:44 | 40.79807 | -111.96059 | 4226 ft | 7 kts | 268° |
| 2026-05-07 22:44 | 40.79807 | -111.96109 | 4225 ft | 5 kts | 272° |
| 2026-05-07 22:44 | 40.79803 | -111.96173 | 4225 ft | 9 kts | 249° |
| 2026-05-07 22:44 | 40.79764 | -111.96210 | 4225 ft | 3 kts | 180° |
| 2026-05-07 22:45 | 40.79762 | -111.96210 | 4225 ft | 0 kts | 179° |
| 2026-05-07 22:45 | 40.79689 | -111.96210 | 4224 ft | 32 kts | 180° |
| 2026-05-07 22:45 | 40.79299 | -111.96213 | 4225 ft | 80 kts | 180° |
| 2026-05-07 22:45 | 40.78598 | -111.96209 | 4256 ft | 117 kts | 182° |
| 2026-05-07 22:46 | 40.77722 | -111.96203 | 4466 ft | 134 kts | 181° |
| 2026-05-07 22:46 | 40.76778 | -111.96163 | 4784 ft | 143 kts | 178° |
| 2026-05-07 22:46 | 40.75729 | -111.96041 | 5061 ft | 158 kts | 174° |
| 2026-05-07 22:46 | 40.74597 | -111.95892 | 5412 ft | 166 kts | 175° |
| 2026-05-07 22:47 | 40.73467 | -111.95541 | 5884 ft | 167 kts | 162° |
| 2026-05-07 22:47 | 40.72343 | -111.95132 | 6342 ft | 169 kts | 171° |
| 2026-05-07 22:47 | 40.71199 | -111.94751 | 6805 ft | 170 kts | 167° |
| 2026-05-07 22:47 | 40.70068 | -111.94406 | 7242 ft | 169 kts | 172° |
| 2026-05-07 22:48 | 40.68905 | -111.94046 | 7603 ft | 172 kts | 172° |
| 2026-05-07 22:48 | 40.67751 | -111.93672 | 8050 ft | 172 kts | 173° |
| 2026-05-07 22:48 | 40.66583 | -111.93261 | 8458 ft | 174 kts | 170° |
| 2026-05-07 22:48 | 40.65418 | -111.92848 | 8903 ft | 174 kts | 171° |
| 2026-05-07 22:49 | 40.64242 | -111.92437 | 9326 ft | 176 kts | 171° |
| 2026-05-07 22:49 | 40.63055 | -111.92025 | 9789 ft | 176 kts | 171° |
| 2026-05-07 22:49 | 40.61866 | -111.91616 | 10195 ft | 178 kts | 172° |
| 2026-05-07 22:49 | 40.60661 | -111.91191 | 10587 ft | 180 kts | 172° |
| 2026-05-07 22:50 | 40.59446 | -111.90930 | 10975 ft | 175 kts | 190° |
| 2026-05-07 22:50 | 40.58248 | -111.91109 | 11373 ft | 173 kts | 197° |
| 2026-05-07 22:50 | 40.57053 | -111.91356 | 11777 ft | 175 kts | 196° |
| 2026-05-07 22:50 | 40.55839 | -111.91578 | 12173 ft | 177 kts | 195° |
| 2026-05-07 22:51 | 40.54612 | -111.91779 | 12565 ft | 179 kts | 195° |
| 2026-05-07 22:51 | 40.53385 | -111.91965 | 12984 ft | 180 kts | 194° |
| 2026-05-07 22:51 | 40.52138 | -111.92146 | 13406 ft | 182 kts | 194° |
| 2026-05-07 22:51 | 40.50872 | -111.92327 | 13815 ft | 183 kts | 194° |
| 2026-05-07 22:52 | 40.49604 | -111.92507 | 14195 ft | 184 kts | 194° |
| 2026-05-07 22:52 | 40.48320 | -111.92688 | 14546 ft | 186 kts | 195° |
| 2026-05-07 22:52 | 40.47029 | -111.92873 | 14925 ft | 187 kts | 194° |
| 2026-05-07 22:52 | 40.45731 | -111.93052 | 15305 ft | 188 kts | 194° |
| 2026-05-07 22:53 | 40.44426 | -111.93237 | 15672 ft | 190 kts | 194° |
| 2026-05-07 22:53 | 40.43100 | -111.93423 | 16011 ft | 192 kts | 195° |
| 2026-05-07 22:53 | 40.41766 | -111.93613 | 16388 ft | 193 kts | 194° |
| 2026-05-07 22:53 | 40.40425 | -111.93799 | 16735 ft | 195 kts | 195° |
| 2026-05-07 22:54 | 40.39069 | -111.93990 | 17089 ft | 197 kts | 195° |
| 2026-05-07 22:54 | 40.37717 | -111.94181 | 17445 ft | 199 kts | 195° |
| 2026-05-07 22:54 | 40.36332 | -111.94376 | 17806 ft | 201 kts | 195° |
| 2026-05-07 22:54 | 40.34938 | -111.94571 | 18171 ft | 202 kts | 195° |
| 2026-05-07 22:55 | 40.33531 | -111.94767 | 18499 ft | 204 kts | 195° |
| 2026-05-07 22:55 | 40.32111 | -111.94966 | 18814 ft | 206 kts | 195° |
| 2026-05-07 22:55 | 40.30658 | -111.95173 | 18974 ft | 217 kts | 195° |
| 2026-05-07 22:55 | 40.29098 | -111.95418 | 19018 ft | 234 kts | 195° |
| 2026-05-07 22:56 | 40.27424 | -111.95682 | 19056 ft | 249 kts | 194° |
| 2026-05-07 22:56 | 40.25652 | -111.95960 | 19062 ft | 263 kts | 194° |
| 2026-05-07 22:56 | 40.23792 | -111.96239 | 19070 ft | 274 kts | 194° |
| 2026-05-07 22:56 | 40.21864 | -111.96516 | 19069 ft | 283 kts | 193° |
| 2026-05-07 22:57 | 40.19884 | -111.96791 | 19058 ft | 289 kts | 193° |
| 2026-05-07 22:57 | 40.17863 | -111.97067 | 19049 ft | 294 kts | 193° |
| 2026-05-07 22:57 | 40.15818 | -111.97345 | 19031 ft | 297 kts | 193° |
| 2026-05-07 22:57 | 40.13758 | -111.97624 | 19022 ft | 299 kts | 193° |
| 2026-05-07 22:58 | 40.11685 | -111.97908 | 19017 ft | 300 kts | 192° |
| 2026-05-07 22:58 | 40.09627 | -111.98189 | 19006 ft | 301 kts | 192° |
| 2026-05-07 22:58 | 40.07543 | -111.98474 | 18964 ft | 301 kts | 192° |
| 2026-05-07 22:58 | 40.05458 | -111.98762 | 18965 ft | 301 kts | 192° |
| 2026-05-07 22:59 | 40.03371 | -111.99051 | 18964 ft | 302 kts | 193° |
| 2026-05-07 22:59 | 40.01278 | -111.99312 | 18969 ft | 304 kts | 190° |
| 2026-05-07 22:59 | 39.99149 | -111.99290 | 18972 ft | 308 kts | 183° |
| 2026-05-07 22:59 | 39.97731 | -111.99164 | 18973 ft | 309 kts | 181° |
| 2026-05-07 23:00 | 39.95586 | -111.98930 | 18974 ft | 309 kts | 181° |
| 2026-05-07 23:00 | 39.93438 | -111.98698 | 18971 ft | 310 kts | 181° |
| 2026-05-07 23:00 | 39.91293 | -111.98488 | 18972 ft | 310 kts | 182° |
| 2026-05-07 23:00 | 39.89144 | -111.98301 | 18976 ft | 310 kts | 182° |
| 2026-05-07 23:01 | 39.86988 | -111.98131 | 18985 ft | 310 kts | 182° |
| 2026-05-07 23:01 | 39.84833 | -111.97973 | 18995 ft | 310 kts | 182° |
| 2026-05-07 23:01 | 39.82677 | -111.97822 | 18995 ft | 311 kts | 182° |
| 2026-05-07 23:01 | 39.80513 | -111.97672 | 18995 ft | 312 kts | 182° |
| 2026-05-07 23:02 | 39.78347 | -111.97525 | 18997 ft | 312 kts | 182° |
| 2026-05-07 23:02 | 39.76180 | -111.97379 | 19003 ft | 312 kts | 182° |
| 2026-05-07 23:02 | 39.74011 | -111.97230 | 18999 ft | 312 kts | 182° |
| 2026-05-07 23:02 | 39.71839 | -111.97083 | 19004 ft | 313 kts | 182° |
| 2026-05-07 23:03 | 39.69667 | -111.96936 | 19001 ft | 313 kts | 182° |
| 2026-05-07 23:03 | 39.67496 | -111.96789 | 18999 ft | 312 kts | 182° |
| 2026-05-07 23:03 | 39.65325 | -111.96643 | 19007 ft | 313 kts | 182° |
| 2026-05-07 23:03 | 39.63147 | -111.96496 | 19001 ft | 313 kts | 182° |
| 2026-05-07 23:04 | 39.61007 | -111.96351 | 19004 ft | 313 kts | 182° |
| 2026-05-07 23:04 | 39.58830 | -111.96206 | 19004 ft | 313 kts | 182° |
| 2026-05-07 23:04 | 39.56658 | -111.96057 | 18993 ft | 313 kts | 182° |
| 2026-05-07 23:04 | 39.54482 | -111.95911 | 19004 ft | 313 kts | 182° |
| 2026-05-07 23:05 | 39.52312 | -111.95766 | 19000 ft | 313 kts | 182° |
| 2026-05-07 23:05 | 39.50139 | -111.95620 | 18993 ft | 312 kts | 182° |
| 2026-05-07 23:05 | 39.47969 | -111.95475 | 18996 ft | 312 kts | 182° |
| 2026-05-07 23:05 | 39.45798 | -111.95330 | 19007 ft | 312 kts | 182° |
| 2026-05-07 23:06 | 39.43628 | -111.95183 | 18997 ft | 312 kts | 182° |
| 2026-05-07 23:06 | 39.41459 | -111.95038 | 18991 ft | 312 kts | 181° |
| 2026-05-07 23:06 | 39.39295 | -111.94893 | 18999 ft | 312 kts | 181° |
| 2026-05-07 23:06 | 39.37130 | -111.94749 | 19007 ft | 312 kts | 181° |
| 2026-05-07 23:07 | 39.34963 | -111.94602 | 19005 ft | 312 kts | 181° |
| 2026-05-07 23:07 | 39.32797 | -111.94457 | 19006 ft | 312 kts | 181° |
| 2026-05-07 23:07 | 39.30629 | -111.94311 | 19016 ft | 312 kts | 181° |
| 2026-05-07 23:07 | 39.28460 | -111.94167 | 19007 ft | 311 kts | 181° |
| 2026-05-07 23:08 | 39.26320 | -111.94023 | 18999 ft | 311 kts | 181° |
| 2026-05-07 23:08 | 39.24160 | -111.93879 | 18999 ft | 311 kts | 181° |
| 2026-05-07 23:08 | 39.22003 | -111.93735 | 18991 ft | 310 kts | 181° |
| 2026-05-07 23:08 | 39.19850 | -111.93592 | 19010 ft | 309 kts | 181° |
| 2026-05-07 23:09 | 39.17700 | -111.93449 | 19016 ft | 309 kts | 181° |
| 2026-05-07 23:09 | 39.15549 | -111.93305 | 19018 ft | 309 kts | 181° |
| 2026-05-07 23:09 | 39.13396 | -111.93162 | 19035 ft | 310 kts | 181° |
| 2026-05-07 23:09 | 39.11247 | -111.93018 | 19031 ft | 310 kts | 181° |
| 2026-05-07 23:10 | 39.09094 | -111.92876 | 19035 ft | 310 kts | 181° |
| 2026-05-07 23:10 | 39.06941 | -111.92733 | 19040 ft | 310 kts | 181° |
| 2026-05-07 23:10 | 39.04783 | -111.92590 | 19041 ft | 310 kts | 181° |
| 2026-05-07 23:10 | 39.02627 | -111.92447 | 19043 ft | 310 kts | 181° |
| 2026-05-07 23:11 | 39.00471 | -111.92305 | 19036 ft | 310 kts | 180° |
| 2026-05-07 23:11 | 38.98319 | -111.92162 | 19040 ft | 309 kts | 180° |
| 2026-05-07 23:11 | 38.96200 | -111.92022 | 19047 ft | 308 kts | 180° |
| 2026-05-07 23:11 | 38.94058 | -111.91881 | 19045 ft | 308 kts | 180° |
| 2026-05-07 23:12 | 38.91920 | -111.91740 | 19052 ft | 308 kts | 180° |
| 2026-05-07 23:12 | 38.89780 | -111.91598 | 19055 ft | 308 kts | 180° |
| 2026-05-07 23:12 | 38.87638 | -111.91457 | 19060 ft | 308 kts | 180° |
| 2026-05-07 23:12 | 38.85491 | -111.91314 | 19062 ft | 309 kts | 180° |
| 2026-05-07 23:13 | 38.83345 | -111.91174 | 19058 ft | 309 kts | 180° |
| 2026-05-07 23:13 | 38.81199 | -111.91032 | 19055 ft | 308 kts | 180° |
| 2026-05-07 23:13 | 38.79057 | -111.90891 | 19051 ft | 308 kts | 180° |
| 2026-05-07 23:13 | 38.76912 | -111.90750 | 19061 ft | 309 kts | 180° |
| 2026-05-07 23:14 | 38.74767 | -111.90609 | 19057 ft | 309 kts | 180° |
| 2026-05-07 23:14 | 38.72624 | -111.90468 | 19060 ft | 309 kts | 180° |
| 2026-05-07 23:14 | 38.70476 | -111.90329 | 19064 ft | 309 kts | 180° |
| 2026-05-07 23:14 | 38.68325 | -111.90185 | 19057 ft | 309 kts | 180° |
| 2026-05-07 23:15 | 38.66171 | -111.90042 | 19036 ft | 309 kts | 180° |
| 2026-05-07 23:15 | 38.64031 | -111.89897 | 19010 ft | 308 kts | 180° |
| 2026-05-07 23:15 | 38.61894 | -111.89760 | 19030 ft | 307 kts | 180° |
| 2026-05-07 23:15 | 38.59761 | -111.89623 | 19040 ft | 307 kts | 180° |
| 2026-05-07 23:16 | 38.57626 | -111.89484 | 19046 ft | 307 kts | 180° |
| 2026-05-07 23:16 | 38.55490 | -111.89345 | 19049 ft | 307 kts | 180° |
| 2026-05-07 23:16 | 38.53355 | -111.89203 | 19042 ft | 307 kts | 180° |
| 2026-05-07 23:16 | 38.51221 | -111.89064 | 19043 ft | 307 kts | 180° |
| 2026-05-07 23:17 | 38.49112 | -111.88928 | 19044 ft | 307 kts | 180° |
| 2026-05-07 23:17 | 38.46979 | -111.88790 | 19048 ft | 307 kts | 180° |
| 2026-05-07 23:17 | 38.44839 | -111.88650 | 19044 ft | 307 kts | 180° |
| 2026-05-07 23:17 | 38.42702 | -111.88512 | 19048 ft | 308 kts | 180° |
| 2026-05-07 23:18 | 38.40564 | -111.88373 | 19057 ft | 308 kts | 180° |
| 2026-05-07 23:18 | 38.38422 | -111.88228 | 19061 ft | 309 kts | 179° |
| 2026-05-07 23:18 | 38.36279 | -111.87900 | 19057 ft | 311 kts | 174° |
| 2026-05-07 23:18 | 38.34139 | -111.87471 | 19057 ft | 310 kts | 173° |
| 2026-05-07 23:19 | 38.32007 | -111.87055 | 19049 ft | 310 kts | 174° |
| 2026-05-07 23:19 | 38.29873 | -111.86657 | 19044 ft | 310 kts | 174° |
| 2026-05-07 23:19 | 38.27742 | -111.86273 | 19037 ft | 309 kts | 174° |
| 2026-05-07 23:19 | 38.25613 | -111.85897 | 19036 ft | 309 kts | 174° |
| 2026-05-07 23:20 | 38.23485 | -111.85524 | 19038 ft | 308 kts | 175° |
| 2026-05-07 23:20 | 38.21353 | -111.85152 | 19032 ft | 308 kts | 175° |
| 2026-05-07 23:20 | 38.19259 | -111.84788 | 19020 ft | 308 kts | 174° |
| 2026-05-07 23:20 | 38.17110 | -111.84415 | 19017 ft | 308 kts | 175° |
| 2026-05-07 23:21 | 38.14995 | -111.84051 | 18751 ft | 314 kts | 174° |
| 2026-05-07 23:21 | 38.12809 | -111.83677 | 18411 ft | 320 kts | 175° |
| 2026-05-07 23:21 | 38.10585 | -111.83291 | 18008 ft | 324 kts | 174° |
| 2026-05-07 23:21 | 38.08351 | -111.82904 | 17591 ft | 324 kts | 174° |
| 2026-05-07 23:22 | 38.06122 | -111.82524 | 17194 ft | 321 kts | 175° |
| 2026-05-07 23:22 | 38.03923 | -111.82150 | 16790 ft | 316 kts | 175° |
| 2026-05-07 23:22 | 38.01765 | -111.81783 | 16386 ft | 309 kts | 175° |
| 2026-05-07 23:22 | 37.99648 | -111.81417 | 15992 ft | 304 kts | 175° |
| 2026-05-07 23:23 | 37.97571 | -111.81115 | 15599 ft | 296 kts | 181° |
| 2026-05-07 23:23 | 37.95621 | -111.81633 | 15223 ft | 281 kts | 209° |
| 2026-05-07 23:23 | 37.94123 | -111.83030 | 14777 ft | 262 kts | 230° |
| 2026-05-07 23:23 | 37.92922 | -111.84698 | 14288 ft | 252 kts | 231° |
| 2026-05-07 23:24 | 37.91741 | -111.86303 | 13800 ft | 246 kts | 231° |
| 2026-05-07 23:24 | 37.90586 | -111.87860 | 13281 ft | 239 kts | 231° |
| 2026-05-07 23:24 | 37.89460 | -111.89379 | 12782 ft | 234 kts | 231° |
| 2026-05-07 23:24 | 37.88349 | -111.90870 | 12308 ft | 231 kts | 231° |
| 2026-05-07 23:25 | 37.87252 | -111.92342 | 11844 ft | 228 kts | 231° |
| 2026-05-07 23:25 | 37.86180 | -111.93794 | 11377 ft | 224 kts | 231° |
| 2026-05-07 23:25 | 37.85118 | -111.95215 | 10921 ft | 221 kts | 231° |
| 2026-05-07 23:25 | 37.84064 | -111.96605 | 10676 ft | 214 kts | 231° |
| 2026-05-07 23:26 | 37.83053 | -111.97935 | 10639 ft | 205 kts | 230° |
| 2026-05-07 23:26 | 37.82087 | -111.99238 | 10612 ft | 203 kts | 232° |
| 2026-05-07 23:26 | 37.81112 | -112.00577 | 10361 ft | 209 kts | 232° |
| 2026-05-07 23:26 | 37.80112 | -112.01921 | 10108 ft | 210 kts | 232° |
| 2026-05-07 23:27 | 37.78109 | -112.04585 | 9583 ft | 205 kts | 231° |
| 2026-05-07 23:27 | 37.77176 | -112.05829 | 9374 ft | 185 kts | 231° |
| 2026-05-07 23:27 | 37.76334 | -112.06957 | 9183 ft | 170 kts | 231° |
| 2026-05-07 23:28 | 37.75547 | -112.08001 | 9003 ft | 163 kts | 233° |
| 2026-05-07 23:28 | 37.74787 | -112.09036 | 8765 ft | 157 kts | 232° |
| 2026-05-07 23:28 | 37.74063 | -112.10018 | 8484 ft | 148 kts | 232° |
| 2026-05-07 23:28 | 37.73373 | -112.10938 | 8246 ft | 141 kts | 230° |
| 2026-05-07 23:29 | 37.72742 | -112.11791 | 8023 ft | 117 kts | 232° |
| 2026-05-07 23:29 | 37.72242 | -112.12435 | 7831 ft | 96 kts | 232° |
| 2026-05-07 23:29 | 37.71803 | -112.13022 | 7726 ft | 87 kts | 234° |
| 2026-05-07 23:29 | 37.71402 | -112.13567 | 7626 ft | 83 kts | 233° |
| 2026-05-07 23:30 | 37.71022 | -112.14075 | 7595 ft | 74 kts | 233° |
| 2026-05-07 23:30 | 37.70734 | -112.14459 | 7591 ft | 47 kts | 225° |